XS18 weather

Tom J Moore Farm Airport
Millican, Texas, United States

Public forecast

Using degrees Fahrenheit for public forecast. Weather courtesy of forecast.io.

METAR (pilot weather report)

Closest report is Brenham Municipal Airport, 12.6 nm (23.4 km) SW. Retrieved 2019/07/17 17:35 UTC (2 minutes ago):

K11R 171735Z AUTO 16008KT 130V190 10SM BKN036 BKN042 BKN055 34/24 A3006 RMK AO2 T03360239

TAF (pilot weather forecast)

Closest forecast is Easterwood Field, 14.2 nm (26.3 km) NNW. Retrieved 2019/07/17 12:24 UTC (5 hours ago):

TAF KCLL 171122Z 1712/1812 16008KT P6SM OVC005 FM171400 18007KT P6SM SCT007 BKN015 FM171600 17011KT P6SM SCT015 SCT040 FM180100 16009KT P6SM FEW250 FM181000 17005KT P6SM BKN007 BKN015